sensor_id;sensor_type;location;lat;lon;timestamp;temperature;humidity
68719;DHT22;55696;52.138;5.444;2023-06-10T00:00:47;23.70;43.60
68719;DHT22;55696;52.138;5.444;2023-06-10T00:03:14;23.90;43.70
68719;DHT22;55696;52.138;5.444;2023-06-10T00:05:41;23.70;43.30
68719;DHT22;55696;52.138;5.444;2023-06-10T00:08:08;23.90;43.50
68719;DHT22;55696;52.138;5.444;2023-06-10T00:10:35;23.70;43.50
68719;DHT22;55696;52.138;5.444;2023-06-10T00:13:03;23.40;43.20
68719;DHT22;55696;52.138;5.444;2023-06-10T00:15:31;23.60;43.20
68719;DHT22;55696;52.138;5.444;2023-06-10T00:17:58;23.90;43.30
68719;DHT22;55696;52.138;5.444;2023-06-10T00:20:25;23.50;43.00
68719;DHT22;55696;52.138;5.444;2023-06-10T00:22:52;23.50;43.00
68719;DHT22;55696;52.138;5.444;2023-06-10T00:25:19;23.80;43.10
68719;DHT22;55696;52.138;5.444;2023-06-10T00:27:46;23.30;42.70
68719;DHT22;55696;52.138;5.444;2023-06-10T00:30:13;23.30;42.70
68719;DHT22;55696;52.138;5.444;2023-06-10T00:32:40;23.40;42.60
68719;DHT22;55696;52.138;5.444;2023-06-10T00:35:07;23.30;42.40
68719;DHT22;55696;52.138;5.444;2023-06-10T00:37:35;23.50;42.30
68719;DHT22;55696;52.138;5.444;2023-06-10T00:40:03;23.50;43.10
68719;DHT22;55696;52.138;5.444;2023-06-10T00:42:31;23.50;41.90
68719;DHT22;55696;52.138;5.444;2023-06-10T00:44:58;23.50;41.60
68719;DHT22;55696;52.138;5.444;2023-06-10T00:47:25;23.60;41.40
68719;DHT22;55696;52.138;5.444;2023-06-10T00:49:53;23.70;41.30
68719;DHT22;55696;52.138;5.444;2023-06-10T00:52:26;23.40;41.20
68719;DHT22;55696;52.138;5.444;2023-06-10T00:54:54;23.70;42.60
68719;DHT22;55696;52.138;5.444;2023-06-10T00:57:21;23.30;41.10
68719;DHT22;55696;52.138;5.444;2023-06-10T00:59:49;23.20;40.90
68719;DHT22;55696;52.138;5.444;2023-06-10T01:02:16;23.40;40.80
68719;DHT22;55696;52.138;5.444;2023-06-10T01:04:43;23.20;40.70
68719;DHT22;55696;52.138;5.444;2023-06-10T01:07:23;23.30;40.60
68719;DHT22;55696;52.138;5.444;2023-06-10T01:10:06;23.30;40.50
68719;DHT22;55696;52.138;5.444;2023-06-10T01:15:20;23.30;40.70
68719;DHT22;55696;52.138;5.444;2023-06-10T01:18:02;23.20;40.50
68719;DHT22;55696;52.138;5.444;2023-06-10T01:20:31;23.30;40.70
68719;DHT22;55696;52.138;5.444;2023-06-10T01:22:59;23.10;40.60
68719;DHT22;55696;52.138;5.444;2023-06-10T01:25:27;23.10;40.60
68719;DHT22;55696;52.138;5.444;2023-06-10T01:28:02;23.00;40.60
68719;DHT22;55696;52.138;5.444;2023-06-10T01:30:37;23.20;41.00
68719;DHT22;55696;52.138;5.444;2023-06-10T01:33:07;23.10;41.00
68719;DHT22;55696;52.138;5.444;2023-06-10T01:35:37;23.10;41.00
68719;DHT22;55696;52.138;5.444;2023-06-10T01:38:04;23.10;41.10
68719;DHT22;55696;52.138;5.444;2023-06-10T01:40:32;23.00;41.00
68719;DHT22;55696;52.138;5.444;2023-06-10T01:43:00;22.90;41.40
68719;DHT22;55696;52.138;5.444;2023-06-10T01:45:28;23.00;41.40
68719;DHT22;55696;52.138;5.444;2023-06-10T01:47:54;22.80;41.20
68719;DHT22;55696;52.138;5.444;2023-06-10T01:50:21;23.00;41.40
68719;DHT22;55696;52.138;5.444;2023-06-10T01:52:48;23.10;41.60
68719;DHT22;55696;52.138;5.444;2023-06-10T01:55:15;22.70;41.40
68719;DHT22;55696;52.138;5.444;2023-06-10T01:57:42;22.70;41.70
68719;DHT22;55696;52.138;5.444;2023-06-10T02:00:11;22.80;42.00
68719;DHT22;55696;52.138;5.444;2023-06-10T02:02:40;22.90;41.90
68719;DHT22;55696;52.138;5.444;2023-06-10T02:05:08;22.70;41.90
68719;DHT22;55696;52.138;5.444;2023-06-10T02:07:35;22.80;42.10
68719;DHT22;55696;52.138;5.444;2023-06-10T02:10:03;22.80;42.10
68719;DHT22;55696;52.138;5.444;2023-06-10T02:12:30;22.80;42.30
68719;DHT22;55696;52.138;5.444;2023-06-10T02:14:57;22.60;42.30
68719;DHT22;55696;52.138;5.444;2023-06-10T02:17:24;22.80;42.50
68719;DHT22;55696;52.138;5.444;2023-06-10T02:19:51;22.60;42.60
68719;DHT22;55696;52.138;5.444;2023-06-10T02:22:23;23.20;42.90
68719;DHT22;55696;52.138;5.444;2023-06-10T02:24:50;22.50;42.80
68719;DHT22;55696;52.138;5.444;2023-06-10T02:27:18;22.60;43.00
68719;DHT22;55696;52.138;5.444;2023-06-10T02:29:45;22.40;43.00
68719;DHT22;55696;52.138;5.444;2023-06-10T02:32:11;22.50;43.10
68719;DHT22;55696;52.138;5.444;2023-06-10T02:34:40;22.90;43.60
68719;DHT22;55696;52.138;5.444;2023-06-10T02:37:07;22.40;43.50
68719;DHT22;55696;52.138;5.444;2023-06-10T02:39:34;22.40;43.60
68719;DHT22;55696;52.138;5.444;2023-06-10T02:42:05;22.40;43.70
68719;DHT22;55696;52.138;5.444;2023-06-10T02:44:32;22.40;44.00
68719;DHT22;55696;52.138;5.444;2023-06-10T02:46:59;22.30;43.90
68719;DHT22;55696;52.138;5.444;2023-06-10T02:49:27;22.30;44.00
68719;DHT22;55696;52.138;5.444;2023-06-10T02:51:57;22.30;44.20
68719;DHT22;55696;52.138;5.444;2023-06-10T02:54:25;22.30;44.30
68719;DHT22;55696;52.138;5.444;2023-06-10T02:56:54;22.20;44.40
68719;DHT22;55696;52.138;5.444;2023-06-10T02:59:25;22.20;44.50
68719;DHT22;55696;52.138;5.444;2023-06-10T03:01:53;22.20;44.60
68719;DHT22;55696;52.138;5.444;2023-06-10T03:04:21;22.20;44.50
68719;DHT22;55696;52.138;5.444;2023-06-10T03:06:58;22.20;44.50
68719;DHT22;55696;52.138;5.444;2023-06-10T03:09:29;22.80;45.00
68719;DHT22;55696;52.138;5.444;2023-06-10T03:11:58;22.20;44.80
68719;DHT22;55696;52.138;5.444;2023-06-10T03:14:25;22.20;45.00
68719;DHT22;55696;52.138;5.444;2023-06-10T03:16:52;22.10;45.30
68719;DHT22;55696;52.138;5.444;2023-06-10T03:19:22;22.10;45.40
68719;DHT22;55696;52.138;5.444;2023-06-10T03:22:11;22.00;45.20
68719;DHT22;55696;52.138;5.444;2023-06-10T03:24:45;22.10;45.50
68719;DHT22;55696;52.138;5.444;2023-06-10T03:27:13;22.10;45.40
68719;DHT22;55696;52.138;5.444;2023-06-10T03:29:43;22.10;45.40
68719;DHT22;55696;52.138;5.444;2023-06-10T03:32:10;22.00;45.30
68719;DHT22;55696;52.138;5.444;2023-06-10T03:34:40;22.10;45.40
68719;DHT22;55696;52.138;5.444;2023-06-10T03:37:07;22.10;45.50
68719;DHT22;55696;52.138;5.444;2023-06-10T03:39:34;22.00;45.60
68719;DHT22;55696;52.138;5.444;2023-06-10T03:42:02;21.90;45.70
68719;DHT22;55696;52.138;5.444;2023-06-10T03:44:30;22.10;45.80
68719;DHT22;55696;52.138;5.444;2023-06-10T03:46:58;22.00;45.90
68719;DHT22;55696;52.138;5.444;2023-06-10T03:49:26;22.00;46.10
68719;DHT22;55696;52.138;5.444;2023-06-10T03:51:58;21.90;46.10
68719;DHT22;55696;52.138;5.444;2023-06-10T03:54:25;21.80;46.30
68719;DHT22;55696;52.138;5.444;2023-06-10T03:56:54;21.90;46.50
68719;DHT22;55696;52.138;5.444;2023-06-10T03:59:26;21.90;46.70
68719;DHT22;55696;52.138;5.444;2023-06-10T04:01:56;21.90;46.70
68719;DHT22;55696;52.138;5.444;2023-06-10T04:04:23;21.90;46.80
68719;DHT22;55696;52.138;5.444;2023-06-10T04:06:50;21.80;46.80
68719;DHT22;55696;52.138;5.444;2023-06-10T04:09:17;22.30;47.20
68719;DHT22;55696;52.138;5.444;2023-06-10T04:11:44;21.70;47.00
68719;DHT22;55696;52.138;5.444;2023-06-10T04:14:11;21.80;47.30
68719;DHT22;55696;52.138;5.444;2023-06-10T04:16:40;21.70;47.30
68719;DHT22;55696;52.138;5.444;2023-06-10T04:19:09;21.80;47.40
68719;DHT22;55696;52.138;5.444;2023-06-10T04:21:36;21.70;47.30
68719;DHT22;55696;52.138;5.444;2023-06-10T04:24:03;22.00;47.40
68719;DHT22;55696;52.138;5.444;2023-06-10T04:26:31;21.90;47.40
68719;DHT22;55696;52.138;5.444;2023-06-10T04:28:58;21.80;47.30
68719;DHT22;55696;52.138;5.444;2023-06-10T04:31:25;21.80;47.30
68719;DHT22;55696;52.138;5.444;2023-06-10T04:33:53;21.70;47.30
68719;DHT22;55696;52.138;5.444;2023-06-10T04:36:20;22.00;47.60
68719;DHT22;55696;52.138;5.444;2023-06-10T04:38:47;21.90;47.50
68719;DHT22;55696;52.138;5.444;2023-06-10T04:41:14;22.40;47.70
68719;DHT22;55696;52.138;5.444;2023-06-10T04:43:41;22.60;47.80
68719;DHT22;55696;52.138;5.444;2023-06-10T04:46:08;22.10;47.40
68719;DHT22;55696;52.138;5.444;2023-06-10T04:48:35;22.20;47.40
68719;DHT22;55696;52.138;5.444;2023-06-10T04:51:03;22.60;47.70
68719;DHT22;55696;52.138;5.444;2023-06-10T04:53:32;22.20;48.50
68719;DHT22;55696;52.138;5.444;2023-06-10T04:55:58;22.20;47.60
68719;DHT22;55696;52.138;5.444;2023-06-10T04:58:25;22.30;47.60
68719;DHT22;55696;52.138;5.444;2023-06-10T05:00:52;22.40;47.60
68719;DHT22;55696;52.138;5.444;2023-06-10T05:03:19;22.20;47.40
68719;DHT22;55696;52.138;5.444;2023-06-10T05:05:46;22.30;47.50
68719;DHT22;55696;52.138;5.444;2023-06-10T05:08:12;22.30;47.60
68719;DHT22;55696;52.138;5.444;2023-06-10T05:10:39;22.30;47.60
68719;DHT22;55696;52.138;5.444;2023-06-10T05:13:06;22.30;47.60
68719;DHT22;55696;52.138;5.444;2023-06-10T05:15:33;23.20;48.10
68719;DHT22;55696;52.138;5.444;2023-06-10T05:18:00;22.50;47.60
68719;DHT22;55696;52.138;5.444;2023-06-10T05:20:29;22.40;47.50
68719;DHT22;55696;52.138;5.444;2023-06-10T05:22:56;22.90;47.80
68719;DHT22;55696;52.138;5.444;2023-06-10T05:25:23;23.00;47.90
68719;DHT22;55696;52.138;5.444;2023-06-10T05:27:50;23.30;48.00
68719;DHT22;55696;52.138;5.444;2023-06-10T05:30:16;22.70;47.60
68719;DHT22;55696;52.138;5.444;2023-06-10T05:32:45;22.60;47.70
68719;DHT22;55696;52.138;5.444;2023-06-10T05:35:12;22.70;48.00
68719;DHT22;55696;52.138;5.444;2023-06-10T05:37:39;22.60;48.00
68719;DHT22;55696;52.138;5.444;2023-06-10T05:40:06;23.40;48.30
68719;DHT22;55696;52.138;5.444;2023-06-10T05:42:33;22.90;48.30
68719;DHT22;55696;52.138;5.444;2023-06-10T05:45:00;22.80;47.70
68719;DHT22;55696;52.138;5.444;2023-06-10T05:47:26;22.90;47.60
68719;DHT22;55696;52.138;5.444;2023-06-10T05:49:53;23.80;48.10
68719;DHT22;55696;52.138;5.444;2023-06-10T05:52:20;23.50;47.70
68719;DHT22;55696;52.138;5.444;2023-06-10T05:54:47;23.10;48.40
68719;DHT22;55696;52.138;5.444;2023-06-10T05:57:14;23.30;47.50
68719;DHT22;55696;52.138;5.444;2023-06-10T05:59:41;23.20;47.30
68719;DHT22;55696;52.138;5.444;2023-06-10T06:02:07;23.20;47.20
68719;DHT22;55696;52.138;5.444;2023-06-10T06:04:34;23.20;47.20
68719;DHT22;55696;52.138;5.444;2023-06-10T06:07:01;23.30;47.20
68719;DHT22;55696;52.138;5.444;2023-06-10T06:09:28;23.40;47.20
68719;DHT22;55696;52.138;5.444;2023-06-10T06:11:55;23.90;47.50
68719;DHT22;55696;52.138;5.444;2023-06-10T06:14:21;23.90;47.30
68719;DHT22;55696;52.138;5.444;2023-06-10T06:16:48;23.50;46.80
68719;DHT22;55696;52.138;5.444;2023-06-10T06:19:15;23.50;46.50
68719;DHT22;55696;52.138;5.444;2023-06-10T06:21:42;23.60;46.50
68719;DHT22;55696;52.138;5.444;2023-06-10T06:24:09;23.60;46.30
68719;DHT22;55696;52.138;5.444;2023-06-10T06:26:36;23.90;46.30
68719;DHT22;55696;52.138;5.444;2023-06-10T06:29:03;23.70;46.20
68719;DHT22;55696;52.138;5.444;2023-06-10T06:31:30;23.90;46.10
68719;DHT22;55696;52.138;5.444;2023-06-10T06:33:57;23.90;45.90
68719;DHT22;55696;52.138;5.444;2023-06-10T06:36:24;24.10;45.70
68719;DHT22;55696;52.138;5.444;2023-06-10T06:38:50;24.00;45.50
68719;DHT22;55696;52.138;5.444;2023-06-10T06:41:18;24.30;45.50
68719;DHT22;55696;52.138;5.444;2023-06-10T06:43:45;24.30;45.30
68719;DHT22;55696;52.138;5.444;2023-06-10T06:46:22;24.40;45.10
68719;DHT22;55696;52.138;5.444;2023-06-10T06:48:49;24.50;45.00
68719;DHT22;55696;52.138;5.444;2023-06-10T06:51:16;24.50;44.90
68719;DHT22;55696;52.138;5.444;2023-06-10T06:53:43;24.60;44.70
68719;DHT22;55696;52.138;5.444;2023-06-10T06:56:14;24.80;44.40
68719;DHT22;55696;52.138;5.444;2023-06-10T06:58:41;24.70;44.30
68719;DHT22;55696;52.138;5.444;2023-06-10T07:01:08;24.60;44.50
68719;DHT22;55696;52.138;5.444;2023-06-10T07:03:35;25.10;44.70
68719;DHT22;55696;52.138;5.444;2023-06-10T07:06:01;24.80;44.30
68719;DHT22;55696;52.138;5.444;2023-06-10T07:08:28;25.00;44.10
68719;DHT22;55696;52.138;5.444;2023-06-10T07:10:55;25.00;44.00
68719;DHT22;55696;52.138;5.444;2023-06-10T07:13:22;25.10;43.70
68719;DHT22;55696;52.138;5.444;2023-06-10T07:15:50;25.20;43.70
68719;DHT22;55696;52.138;5.444;2023-06-10T07:18:17;25.20;43.50
68719;DHT22;55696;52.138;5.444;2023-06-10T07:20:44;25.20;43.30
68719;DHT22;55696;52.138;5.444;2023-06-10T07:23:12;25.30;43.10
68719;DHT22;55696;52.138;5.444;2023-06-10T07:25:38;25.40;43.10
68719;DHT22;55696;52.138;5.444;2023-06-10T07:28:07;25.50;43.20
68719;DHT22;55696;52.138;5.444;2023-06-10T07:30:34;25.70;43.70
68719;DHT22;55696;52.138;5.444;2023-06-10T07:33:00;25.70;43.10
68719;DHT22;55696;52.138;5.444;2023-06-10T07:35:29;25.80;42.60
68719;DHT22;55696;52.138;5.444;2023-06-10T07:37:56;26.00;42.60
68719;DHT22;55696;52.138;5.444;2023-06-10T07:40:23;26.10;42.20
68719;DHT22;55696;52.138;5.444;2023-06-10T07:42:50;26.00;41.70
68719;DHT22;55696;52.138;5.444;2023-06-10T07:45:19;26.10;41.70
68719;DHT22;55696;52.138;5.444;2023-06-10T07:47:46;26.20;41.40
68719;DHT22;55696;52.138;5.444;2023-06-10T07:50:13;26.20;41.20
68719;DHT22;55696;52.138;5.444;2023-06-10T07:52:39;26.30;41.20
68719;DHT22;55696;52.138;5.444;2023-06-10T07:55:07;26.30;40.90
68719;DHT22;55696;52.138;5.444;2023-06-10T07:57:34;26.40;40.80
68719;DHT22;55696;52.138;5.444;2023-06-10T08:00:03;26.30;40.50
68719;DHT22;55696;52.138;5.444;2023-06-10T08:02:38;26.50;40.50
68719;DHT22;55696;52.138;5.444;2023-06-10T08:05:05;26.50;40.50
68719;DHT22;55696;52.138;5.444;2023-06-10T08:07:33;26.60;40.30
68719;DHT22;55696;52.138;5.444;2023-06-10T08:10:00;26.70;40.40
68719;DHT22;55696;52.138;5.444;2023-06-10T08:12:27;26.70;40.70
68719;DHT22;55696;52.138;5.444;2023-06-10T08:14:54;26.80;40.60
68719;DHT22;55696;52.138;5.444;2023-06-10T08:17:21;27.30;40.90
68719;DHT22;55696;52.138;5.444;2023-06-10T08:19:48;26.90;40.30
68719;DHT22;55696;52.138;5.444;2023-06-10T08:22:15;27.00;40.10
68719;DHT22;55696;52.138;5.444;2023-06-10T08:24:42;27.20;39.80
68719;DHT22;55696;52.138;5.444;2023-06-10T08:27:09;27.20;39.80
68719;DHT22;55696;52.138;5.444;2023-06-10T08:29:36;27.60;40.20
68719;DHT22;55696;52.138;5.444;2023-06-10T08:32:03;27.30;39.80
68719;DHT22;55696;52.138;5.444;2023-06-10T08:34:33;27.40;39.60
68719;DHT22;55696;52.138;5.444;2023-06-10T08:37:00;27.40;39.80
68719;DHT22;55696;52.138;5.444;2023-06-10T08:39:27;27.40;39.50
68719;DHT22;55696;52.138;5.444;2023-06-10T08:42:17;27.50;39.10
68719;DHT22;55696;52.138;5.444;2023-06-10T08:44:46;27.60;39.00
68719;DHT22;55696;52.138;5.444;2023-06-10T08:47:16;27.60;38.70
68719;DHT22;55696;52.138;5.444;2023-06-10T08:49:45;27.80;38.60
68719;DHT22;55696;52.138;5.444;2023-06-10T08:52:19;27.70;38.40
68719;DHT22;55696;52.138;5.444;2023-06-10T08:54:54;27.90;38.10
68719;DHT22;55696;52.138;5.444;2023-06-10T08:57:23;27.90;38.10
68719;DHT22;55696;52.138;5.444;2023-06-10T08:59:50;27.90;38.00
68719;DHT22;55696;52.138;5.444;2023-06-10T09:02:17;27.90;37.90
68719;DHT22;55696;52.138;5.444;2023-06-10T09:04:47;28.00;37.90
68719;DHT22;55696;52.138;5.444;2023-06-10T09:07:15;28.40;38.00
68719;DHT22;55696;52.138;5.444;2023-06-10T09:09:43;28.10;37.80
68719;DHT22;55696;52.138;5.444;2023-06-10T09:12:12;28.20;37.50
68719;DHT22;55696;52.138;5.444;2023-06-10T09:14:39;28.30;37.40
68719;DHT22;55696;52.138;5.444;2023-06-10T09:17:06;28.30;37.10
68719;DHT22;55696;52.138;5.444;2023-06-10T09:19:33;28.20;36.90
68719;DHT22;55696;52.138;5.444;2023-06-10T09:22:02;28.40;36.90
68719;DHT22;55696;52.138;5.444;2023-06-10T09:24:29;28.50;36.80
68719;DHT22;55696;52.138;5.444;2023-06-10T09:27:07;28.60;36.60
68719;DHT22;55696;52.138;5.444;2023-06-10T09:29:46;28.80;36.80
68719;DHT22;55696;52.138;5.444;2023-06-10T09:32:14;28.80;35.90
68719;DHT22;55696;52.138;5.444;2023-06-10T09:34:41;28.50;35.50
68719;DHT22;55696;52.138;5.444;2023-06-10T09:37:10;28.60;35.50
68719;DHT22;55696;52.138;5.444;2023-06-10T09:39:40;28.90;36.40
68719;DHT22;55696;52.138;5.444;2023-06-10T09:42:17;28.90;36.10
68719;DHT22;55696;52.138;5.444;2023-06-10T09:44:52;28.80;35.70
68719;DHT22;55696;52.138;5.444;2023-06-10T09:47:22;29.10;35.70
68719;DHT22;55696;52.138;5.444;2023-06-10T09:49:50;29.20;35.60
68719;DHT22;55696;52.138;5.444;2023-06-10T09:52:23;29.30;35.30
68719;DHT22;55696;52.138;5.444;2023-06-10T09:54:52;29.70;35.00
68719;DHT22;55696;52.138;5.444;2023-06-10T09:57:20;29.30;34.40
68719;DHT22;55696;52.138;5.444;2023-06-10T09:59:47;30.30;34.70
68719;DHT22;55696;52.138;5.444;2023-06-10T10:02:18;29.40;33.80
68719;DHT22;55696;52.138;5.444;2023-06-10T10:04:44;29.50;33.40
68719;DHT22;55696;52.138;5.444;2023-06-10T10:07:12;29.60;33.00
68719;DHT22;55696;52.138;5.444;2023-06-10T10:09:40;29.60;33.10
68719;DHT22;55696;52.138;5.444;2023-06-10T10:12:13;29.70;32.70
68719;DHT22;55696;52.138;5.444;2023-06-10T10:14:46;29.70;32.40
68719;DHT22;55696;52.138;5.444;2023-06-10T10:17:15;30.30;32.60
68719;DHT22;55696;52.138;5.444;2023-06-10T10:19:54;29.80;32.30
68719;DHT22;55696;52.138;5.444;2023-06-10T10:22:31;29.90;32.40
68719;DHT22;55696;52.138;5.444;2023-06-10T10:25:11;30.00;32.40
68719;DHT22;55696;52.138;5.444;2023-06-10T10:30:08;30.20;31.50
68719;DHT22;55696;52.138;5.444;2023-06-10T10:33:00;30.20;30.90
68719;DHT22;55696;52.138;5.444;2023-06-10T10:35:36;30.20;30.50
68719;DHT22;55696;52.138;5.444;2023-06-10T10:38:05;30.30;30.30
68719;DHT22;55696;52.138;5.444;2023-06-10T10:40:33;30.30;30.40
68719;DHT22;55696;52.138;5.444;2023-06-10T10:43:01;30.50;30.30
68719;DHT22;55696;52.138;5.444;2023-06-10T10:45:29;30.60;29.40
68719;DHT22;55696;52.138;5.444;2023-06-10T10:47:56;30.60;29.60
68719;DHT22;55696;52.138;5.444;2023-06-10T10:50:24;30.50;29.60
68719;DHT22;55696;52.138;5.444;2023-06-10T10:53:03;30.80;29.80
68719;DHT22;55696;52.138;5.444;2023-06-10T10:55:30;30.90;29.60
68719;DHT22;55696;52.138;5.444;2023-06-10T10:58:07;31.00;29.50
68719;DHT22;55696;52.138;5.444;2023-06-10T11:00:43;31.10;29.60
68719;DHT22;55696;52.138;5.444;2023-06-10T11:03:15;31.20;29.50
68719;DHT22;55696;52.138;5.444;2023-06-10T11:05:48;31.30;29.00
68719;DHT22;55696;52.138;5.444;2023-06-10T11:10:55;31.30;28.70
68719;DHT22;55696;52.138;5.444;2023-06-10T11:13:22;31.50;28.70
68719;DHT22;55696;52.138;5.444;2023-06-10T11:15:50;31.70;28.70
68719;DHT22;55696;52.138;5.444;2023-06-10T11:18:26;31.80;28.30
68719;DHT22;55696;52.138;5.444;2023-06-10T11:20:54;31.80;28.00
68719;DHT22;55696;52.138;5.444;2023-06-10T11:26:13;32.00;27.90
68719;DHT22;55696;52.138;5.444;2023-06-10T11:31:20;32.00;27.30
68719;DHT22;55696;52.138;5.444;2023-06-10T11:33:50;32.00;27.70
68719;DHT22;55696;52.138;5.444;2023-06-10T11:36:18;32.20;27.70
68719;DHT22;55696;52.138;5.444;2023-06-10T11:38:45;32.20;27.70
68719;DHT22;55696;52.138;5.444;2023-06-10T11:41:14;32.40;27.70
68719;DHT22;55696;52.138;5.444;2023-06-10T11:43:43;32.60;27.50
68719;DHT22;55696;52.138;5.444;2023-06-10T11:46:11;32.60;27.40
68719;DHT22;55696;52.138;5.444;2023-06-10T11:48:38;32.70;27.00
68719;DHT22;55696;52.138;5.444;2023-06-10T11:51:08;32.80;27.40
68719;DHT22;55696;52.138;5.444;2023-06-10T11:53:35;32.90;26.70
68719;DHT22;55696;52.138;5.444;2023-06-10T11:56:02;33.00;27.00
68719;DHT22;55696;52.138;5.444;2023-06-10T11:58:29;33.10;26.70
68719;DHT22;55696;52.138;5.444;2023-06-10T12:00:56;33.20;26.00
68719;DHT22;55696;52.138;5.444;2023-06-10T12:03:25;33.20;25.60
68719;DHT22;55696;52.138;5.444;2023-06-10T12:05:59;33.30;26.40
68719;DHT22;55696;52.138;5.444;2023-06-10T12:08:27;33.50;26.70
68719;DHT22;55696;52.138;5.444;2023-06-10T12:10:54;33.70;26.40
68719;DHT22;55696;52.138;5.444;2023-06-10T12:13:22;33.90;26.10
68719;DHT22;55696;52.138;5.444;2023-06-10T12:15:50;34.10;26.00
68719;DHT22;55696;52.138;5.444;2023-06-10T12:18:18;34.10;25.30
68719;DHT22;55696;52.138;5.444;2023-06-10T12:20:46;34.10;25.20
68719;DHT22;55696;52.138;5.444;2023-06-10T12:23:14;34.20;25.10
68719;DHT22;55696;52.138;5.444;2023-06-10T12:25:54;34.20;25.30
68719;DHT22;55696;52.138;5.444;2023-06-10T12:28:25;34.40;25.40
68719;DHT22;55696;52.138;5.444;2023-06-10T12:31:07;34.60;25.20
68719;DHT22;55696;52.138;5.444;2023-06-10T12:33:34;34.70;25.10
68719;DHT22;55696;52.138;5.444;2023-06-10T12:36:01;34.70;24.90
68719;DHT22;55696;52.138;5.444;2023-06-10T12:38:28;34.80;24.90
68719;DHT22;55696;52.138;5.444;2023-06-10T12:41:01;34.80;24.70
68719;DHT22;55696;52.138;5.444;2023-06-10T12:43:31;34.90;24.60
68719;DHT22;55696;52.138;5.444;2023-06-10T12:46:09;35.10;25.10
68719;DHT22;55696;52.138;5.444;2023-06-10T12:48:36;35.10;25.00
68719;DHT22;55696;52.138;5.444;2023-06-10T12:51:03;35.40;24.70
68719;DHT22;55696;52.138;5.444;2023-06-10T12:53:29;35.40;25.00
68719;DHT22;55696;52.138;5.444;2023-06-10T12:55:56;35.50;24.90
68719;DHT22;55696;52.138;5.444;2023-06-10T12:58:24;35.60;24.80
68719;DHT22;55696;52.138;5.444;2023-06-10T13:00:51;35.80;23.90
68719;DHT22;55696;52.138;5.444;2023-06-10T13:03:20;35.80;23.80
68719;DHT22;55696;52.138;5.444;2023-06-10T13:05:47;35.80;23.90
68719;DHT22;55696;52.138;5.444;2023-06-10T13:08:14;35.90;24.00
68719;DHT22;55696;52.138;5.444;2023-06-10T13:10:40;35.90;24.00
68719;DHT22;55696;52.138;5.444;2023-06-10T13:13:08;35.90;24.10
68719;DHT22;55696;52.138;5.444;2023-06-10T13:15:37;36.00;23.80
68719;DHT22;55696;52.138;5.444;2023-06-10T13:18:09;35.90;24.00
68719;DHT22;55696;52.138;5.444;2023-06-10T13:20:36;36.20;24.30
68719;DHT22;55696;52.138;5.444;2023-06-10T13:23:03;36.30;23.70
68719;DHT22;55696;52.138;5.444;2023-06-10T13:25:30;36.40;23.80
68719;DHT22;55696;52.138;5.444;2023-06-10T13:27:57;36.60;24.10
68719;DHT22;55696;52.138;5.444;2023-06-10T13:30:24;36.70;24.10
68719;DHT22;55696;52.138;5.444;2023-06-10T13:32:51;36.80;24.20
68719;DHT22;55696;52.138;5.444;2023-06-10T13:35:18;37.00;23.50
68719;DHT22;55696;52.138;5.444;2023-06-10T13:37:45;37.00;23.20
68719;DHT22;55696;52.138;5.444;2023-06-10T13:40:12;37.00;23.50
68719;DHT22;55696;52.138;5.444;2023-06-10T13:42:39;37.10;23.30
68719;DHT22;55696;52.138;5.444;2023-06-10T13:45:06;37.20;23.00
68719;DHT22;55696;52.138;5.444;2023-06-10T13:47:33;37.30;23.00
68719;DHT22;55696;52.138;5.444;2023-06-10T13:50:01;37.50;23.60
68719;DHT22;55696;52.138;5.444;2023-06-10T13:52:28;37.50;22.90
68719;DHT22;55696;52.138;5.444;2023-06-10T13:54:54;37.70;22.70
68719;DHT22;55696;52.138;5.444;2023-06-10T13:57:21;37.90;23.20
68719;DHT22;55696;52.138;5.444;2023-06-10T13:59:48;38.00;22.20
68719;DHT22;55696;52.138;5.444;2023-06-10T14:02:15;38.10;22.30
68719;DHT22;55696;52.138;5.444;2023-06-10T14:04:42;38.10;22.00
68719;DHT22;55696;52.138;5.444;2023-06-10T14:07:09;38.30;22.10
68719;DHT22;55696;52.138;5.444;2023-06-10T14:09:35;38.40;22.00
68719;DHT22;55696;52.138;5.444;2023-06-10T14:12:02;38.40;22.20
68719;DHT22;55696;52.138;5.444;2023-06-10T14:14:30;38.40;22.10
68719;DHT22;55696;52.138;5.444;2023-06-10T14:16:57;38.40;22.00
68719;DHT22;55696;52.138;5.444;2023-06-10T14:19:25;38.50;22.10
68719;DHT22;55696;52.138;5.444;2023-06-10T14:21:51;38.60;22.20
68719;DHT22;55696;52.138;5.444;2023-06-10T14:24:20;38.70;21.90
68719;DHT22;55696;52.138;5.444;2023-06-10T14:26:47;38.80;21.50
68719;DHT22;55696;52.138;5.444;2023-06-10T14:29:14;38.80;21.50
68719;DHT22;55696;52.138;5.444;2023-06-10T14:31:41;38.80;21.30
68719;DHT22;55696;52.138;5.444;2023-06-10T14:34:08;38.70;21.00
68719;DHT22;55696;52.138;5.444;2023-06-10T14:36:35;38.70;21.20
68719;DHT22;55696;52.138;5.444;2023-06-10T14:39:03;38.70;21.40
68719;DHT22;55696;52.138;5.444;2023-06-10T14:41:31;38.90;21.60
68719;DHT22;55696;52.138;5.444;2023-06-10T14:43:57;39.00;21.50
68719;DHT22;55696;52.138;5.444;2023-06-10T14:46:24;39.10;21.20
68719;DHT22;55696;52.138;5.444;2023-06-10T14:48:51;39.00;20.60
68719;DHT22;55696;52.138;5.444;2023-06-10T14:51:18;38.80;20.80
68719;DHT22;55696;52.138;5.444;2023-06-10T14:53:46;38.80;20.40
68719;DHT22;55696;52.138;5.444;2023-06-10T14:56:13;38.80;21.20
68719;DHT22;55696;52.138;5.444;2023-06-10T14:58:40;38.90;21.30
68719;DHT22;55696;52.138;5.444;2023-06-10T15:01:06;39.00;21.20
68719;DHT22;55696;52.138;5.444;2023-06-10T15:03:33;39.00;21.40
68719;DHT22;55696;52.138;5.444;2023-06-10T15:06:00;39.10;21.00
68719;DHT22;55696;52.138;5.444;2023-06-10T15:08:27;39.20;20.90
68719;DHT22;55696;52.138;5.444;2023-06-10T15:10:57;39.30;21.10
68719;DHT22;55696;52.138;5.444;2023-06-10T15:13:24;39.30;20.80
68719;DHT22;55696;52.138;5.444;2023-06-10T15:15:51;39.30;21.00
68719;DHT22;55696;52.138;5.444;2023-06-10T15:18:18;39.50;20.50
68719;DHT22;55696;52.138;5.444;2023-06-10T15:20:45;39.40;20.60
68719;DHT22;55696;52.138;5.444;2023-06-10T15:23:12;39.40;20.50
68719;DHT22;55696;52.138;5.444;2023-06-10T15:25:39;39.30;20.50
68719;DHT22;55696;52.138;5.444;2023-06-10T15:28:07;39.10;20.70
68719;DHT22;55696;52.138;5.444;2023-06-10T15:30:34;39.20;20.80
68719;DHT22;55696;52.138;5.444;2023-06-10T15:33:01;39.40;20.80
68719;DHT22;55696;52.138;5.444;2023-06-10T15:35:28;39.50;20.80
68719;DHT22;55696;52.138;5.444;2023-06-10T15:37:55;39.60;20.60
68719;DHT22;55696;52.138;5.444;2023-06-10T15:40:21;39.60;20.20
68719;DHT22;55696;52.138;5.444;2023-06-10T15:42:48;39.40;20.30
68719;DHT22;55696;52.138;5.444;2023-06-10T15:45:15;39.30;20.60
68719;DHT22;55696;52.138;5.444;2023-06-10T15:47:42;39.40;20.60
68719;DHT22;55696;52.138;5.444;2023-06-10T15:50:09;39.40;20.50